Rumford Center, Maine
Current Conditions -  °F | °C
As of 2:52 AM on Thursday 29 Jan 2015 (Local Time) from KBML Reporting Station
Clear Clear  
Wind Chill: -22°   Ceiling: Unl
Heat Index: -22°   Visibility: 10mi
Dew Point: -29°   Wind: 0mph
Humidity: 70%   Direction: NA
Pressure: 30.24"   Gusts: NA
Location:  44.51°N, 70.62°W
Report Text: KBML 290752Z AUTO 00000KT 10SM CLR M30/M34 A3024 RMK AO2 SLP276 T13001339
Loading
Personal Weather Stations






























Interactive Weather Map New forecast layout! Learn more

10-Day Weather Forecast

Advertisements
Track Severe Weather on mobile